sensor_id;sensor_type;location;lat;lon;timestamp;temperature;humidity
9237;DHT22;24579;42.810;23.214;2022-07-22T00:01:38;20.30;89.90
9237;DHT22;24579;42.810;23.214;2022-07-22T00:04:13;20.30;90.00
9237;DHT22;24579;42.810;23.214;2022-07-22T00:06:40;20.20;90.00
9237;DHT22;24579;42.810;23.214;2022-07-22T00:09:24;20.20;90.10
9237;DHT22;24579;42.810;23.214;2022-07-22T00:11:53;20.10;90.30
9237;DHT22;24579;42.810;23.214;2022-07-22T00:14:35;20.10;90.50
9237;DHT22;24579;42.810;23.214;2022-07-22T00:17:21;20.10;90.30
9237;DHT22;24579;42.810;23.214;2022-07-22T00:19:56;20.00;90.40
9237;DHT22;24579;42.810;23.214;2022-07-22T00:22:26;20.00;90.60
9237;DHT22;24579;42.810;23.214;2022-07-22T00:24:59;20.10;90.90
9237;DHT22;24579;42.810;23.214;2022-07-22T00:27:46;20.00;90.80
9237;DHT22;24579;42.810;23.214;2022-07-22T00:30:20;20.00;90.70
9237;DHT22;24579;42.810;23.214;2022-07-22T00:32:53;19.90;91.30
9237;DHT22;24579;42.810;23.214;2022-07-22T00:35:26;19.90;91.40
9237;DHT22;24579;42.810;23.214;2022-07-22T00:38:29;19.90;91.30
9237;DHT22;24579;42.810;23.214;2022-07-22T00:41:00;19.90;91.50
9237;DHT22;24579;42.810;23.214;2022-07-22T00:43:52;19.70;91.80
9237;DHT22;24579;42.810;23.214;2022-07-22T00:46:23;19.50;91.90
9237;DHT22;24579;42.810;23.214;2022-07-22T00:49:00;19.50;92.20
9237;DHT22;24579;42.810;23.214;2022-07-22T00:51:28;19.50;92.40
9237;DHT22;24579;42.810;23.214;2022-07-22T00:54:14;19.60;92.30
9237;DHT22;24579;42.810;23.214;2022-07-22T00:56:47;19.60;92.30
9237;DHT22;24579;42.810;23.214;2022-07-22T00:59:23;19.50;92.50
9237;DHT22;24579;42.810;23.214;2022-07-22T01:02:12;19.50;92.50
9237;DHT22;24579;42.810;23.214;2022-07-22T01:04:45;19.40;92.60
9237;DHT22;24579;42.810;23.214;2022-07-22T01:07:26;19.20;92.90
9237;DHT22;24579;42.810;23.214;2022-07-22T01:10:07;19.00;93.30
9237;DHT22;24579;42.810;23.214;2022-07-22T01:12:46;19.00;93.80
9237;DHT22;24579;42.810;23.214;2022-07-22T01:15:18;19.10;93.70
9237;DHT22;24579;42.810;23.214;2022-07-22T01:18:06;19.10;93.80
9237;DHT22;24579;42.810;23.214;2022-07-22T01:20:58;19.10;94.10
9237;DHT22;24579;42.810;23.214;2022-07-22T01:23:47;19.20;94.00
9237;DHT22;24579;42.810;23.214;2022-07-22T01:26:32;18.90;94.50
9237;DHT22;24579;42.810;23.214;2022-07-22T01:29:10;19.00;94.80
9237;DHT22;24579;42.810;23.214;2022-07-22T01:31:49;19.00;94.80
9237;DHT22;24579;42.810;23.214;2022-07-22T01:34:22;18.90;94.80
9237;DHT22;24579;42.810;23.214;2022-07-22T01:37:07;18.80;94.80
9237;DHT22;24579;42.810;23.214;2022-07-22T01:39:39;18.70;95.10
9237;DHT22;24579;42.810;23.214;2022-07-22T01:42:30;18.70;95.50
9237;DHT22;24579;42.810;23.214;2022-07-22T01:45:06;18.70;95.60
9237;DHT22;24579;42.810;23.214;2022-07-22T01:47:43;18.60;95.90
9237;DHT22;24579;42.810;23.214;2022-07-22T01:50:30;18.60;96.00
9237;DHT22;24579;42.810;23.214;2022-07-22T01:53:02;18.70;96.00
9237;DHT22;24579;42.810;23.214;2022-07-22T01:55:43;18.70;96.10
9237;DHT22;24579;42.810;23.214;2022-07-22T01:58:11;18.50;96.20
9237;DHT22;24579;42.810;23.214;2022-07-22T02:00:47;18.50;96.40
9237;DHT22;24579;42.810;23.214;2022-07-22T02:03:37;18.40;96.60
9237;DHT22;24579;42.810;23.214;2022-07-22T02:06:14;18.40;96.90
9237;DHT22;24579;42.810;23.214;2022-07-22T02:09:17;18.50;97.20
9237;DHT22;24579;42.810;23.214;2022-07-22T02:12:01;18.30;96.80
9237;DHT22;24579;42.810;23.214;2022-07-22T02:14:42;18.20;97.20
9237;DHT22;24579;42.810;23.214;2022-07-22T02:17:17;18.20;97.80
9237;DHT22;24579;42.810;23.214;2022-07-22T02:20:16;18.30;97.60
9237;DHT22;24579;42.810;23.214;2022-07-22T02:22:51;18.00;97.40
9237;DHT22;24579;42.810;23.214;2022-07-22T02:25:27;17.80;98.20
9237;DHT22;24579;42.810;23.214;2022-07-22T02:27:54;18.00;99.00
9237;DHT22;24579;42.810;23.214;2022-07-22T02:30:23;18.20;98.40
9237;DHT22;24579;42.810;23.214;2022-07-22T02:35:46;18.20;98.50
9237;DHT22;24579;42.810;23.214;2022-07-22T02:38:27;18.20;98.40
9237;DHT22;24579;42.810;23.214;2022-07-22T02:41:13;18.30;98.30
9237;DHT22;24579;42.810;23.214;2022-07-22T02:43:44;18.10;97.80
9237;DHT22;24579;42.810;23.214;2022-07-22T02:46:18;18.00;98.30
9237;DHT22;24579;42.810;23.214;2022-07-22T02:48:55;17.90;98.20
9237;DHT22;24579;42.810;23.214;2022-07-22T02:51:26;17.70;98.10
9237;DHT22;24579;42.810;23.214;2022-07-22T02:53:57;17.60;98.70
9237;DHT22;24579;42.810;23.214;2022-07-22T02:56:41;17.60;99.00
9237;DHT22;24579;42.810;23.214;2022-07-22T02:59:14;17.00;99.60
9237;DHT22;24579;42.810;23.214;2022-07-22T03:01:47;16.80;99.90
9237;DHT22;24579;42.810;23.214;2022-07-22T03:04:40;16.70;99.90
9237;DHT22;24579;42.810;23.214;2022-07-22T03:07:07;16.20;99.90
9237;DHT22;24579;42.810;23.214;2022-07-22T03:09:51;16.60;99.90
9237;DHT22;24579;42.810;23.214;2022-07-22T03:12:28;16.80;99.90
9237;DHT22;24579;42.810;23.214;2022-07-22T03:15:10;16.80;99.90
9237;DHT22;24579;42.810;23.214;2022-07-22T03:17:53;16.80;99.90
9237;DHT22;24579;42.810;23.214;2022-07-22T03:20:32;17.00;99.90
9237;DHT22;24579;42.810;23.214;2022-07-22T03:23:18;17.30;99.90
9237;DHT22;24579;42.810;23.214;2022-07-22T03:25:45;17.00;99.90
9237;DHT22;24579;42.810;23.214;2022-07-22T03:28:23;16.70;99.90
9237;DHT22;24579;42.810;23.214;2022-07-22T03:31:15;16.60;99.90
9237;DHT22;24579;42.810;23.214;2022-07-22T03:34:10;16.60;99.90
9237;DHT22;24579;42.810;23.214;2022-07-22T03:37:02;16.70;99.90
9237;DHT22;24579;42.810;23.214;2022-07-22T03:39:35;16.50;99.90
9237;DHT22;24579;42.810;23.214;2022-07-22T03:42:10;16.60;99.90
9237;DHT22;24579;42.810;23.214;2022-07-22T03:45:04;16.50;99.90
9237;DHT22;24579;42.810;23.214;2022-07-22T03:47:49;16.70;99.90
9237;DHT22;24579;42.810;23.214;2022-07-22T03:50:24;17.10;99.90
9237;DHT22;24579;42.810;23.214;2022-07-22T03:53:11;16.70;99.90
9237;DHT22;24579;42.810;23.214;2022-07-22T03:55:52;16.50;99.90
9237;DHT22;24579;42.810;23.214;2022-07-22T03:58:36;16.30;99.90
9237;DHT22;24579;42.810;23.214;2022-07-22T04:01:23;16.50;99.90
9237;DHT22;24579;42.810;23.214;2022-07-22T04:04:00;16.70;99.90
9237;DHT22;24579;42.810;23.214;2022-07-22T04:06:36;16.90;99.90
9237;DHT22;24579;42.810;23.214;2022-07-22T04:09:09;17.10;99.90
9237;DHT22;24579;42.810;23.214;2022-07-22T04:11:41;17.20;99.90
9237;DHT22;24579;42.810;23.214;2022-07-22T04:14:19;17.30;99.90
9237;DHT22;24579;42.810;23.214;2022-07-22T04:16:58;17.20;99.90
9237;DHT22;24579;42.810;23.214;2022-07-22T04:19:35;17.40;99.90
9237;DHT22;24579;42.810;23.214;2022-07-22T04:22:03;17.50;99.90
9237;DHT22;24579;42.810;23.214;2022-07-22T04:24:41;17.70;99.90
9237;DHT22;24579;42.810;23.214;2022-07-22T04:27:36;18.00;99.90
9237;DHT22;24579;42.810;23.214;2022-07-22T04:30:12;17.90;99.90
9237;DHT22;24579;42.810;23.214;2022-07-22T04:32:45;18.00;99.90
9237;DHT22;24579;42.810;23.214;2022-07-22T04:35:33;18.20;99.90
9237;DHT22;24579;42.810;23.214;2022-07-22T04:38:15;18.10;99.90
9237;DHT22;24579;42.810;23.214;2022-07-22T04:40:51;18.20;99.90
9237;DHT22;24579;42.810;23.214;2022-07-22T04:43:18;18.30;99.90
9237;DHT22;24579;42.810;23.214;2022-07-22T04:45:59;18.20;99.90
9237;DHT22;24579;42.810;23.214;2022-07-22T04:49:14;18.20;99.90
9237;DHT22;24579;42.810;23.214;2022-07-22T04:51:39;18.30;99.90
9237;DHT22;24579;42.810;23.214;2022-07-22T04:54:25;18.50;99.90
9237;DHT22;24579;42.810;23.214;2022-07-22T04:56:57;18.40;99.90
9237;DHT22;24579;42.810;23.214;2022-07-22T05:02:24;18.40;99.90
9237;DHT22;24579;42.810;23.214;2022-07-22T05:04:59;18.50;99.90
9237;DHT22;24579;42.810;23.214;2022-07-22T05:07:28;18.90;99.90
9237;DHT22;24579;42.810;23.214;2022-07-22T05:10:11;19.20;99.90
9237;DHT22;24579;42.810;23.214;2022-07-22T05:12:43;19.10;99.90
9237;DHT22;24579;42.810;23.214;2022-07-22T05:15:21;19.30;99.90
9237;DHT22;24579;42.810;23.214;2022-07-22T05:18:23;19.50;99.90
9237;DHT22;24579;42.810;23.214;2022-07-22T05:20:54;19.70;99.90
9237;DHT22;24579;42.810;23.214;2022-07-22T05:23:34;20.00;99.90
9237;DHT22;24579;42.810;23.214;2022-07-22T05:26:10;20.20;98.80
9237;DHT22;24579;42.810;23.214;2022-07-22T05:31:38;20.60;98.20
9237;DHT22;24579;42.810;23.214;2022-07-22T05:34:31;20.80;97.10
9237;DHT22;24579;42.810;23.214;2022-07-22T05:37:25;20.90;96.90
9237;DHT22;24579;42.810;23.214;2022-07-22T05:40:12;21.10;96.30
9237;DHT22;24579;42.810;23.214;2022-07-22T05:43:11;21.30;95.30
9237;DHT22;24579;42.810;23.214;2022-07-22T05:45:47;21.50;93.70
9237;DHT22;24579;42.810;23.214;2022-07-22T05:48:21;21.60;93.40
9237;DHT22;24579;42.810;23.214;2022-07-22T05:50:48;21.70;93.60
9237;DHT22;24579;42.810;23.214;2022-07-22T05:53:43;22.00;93.70
9237;DHT22;24579;42.810;23.214;2022-07-22T05:56:12;22.10;91.80
9237;DHT22;24579;42.810;23.214;2022-07-22T05:58:45;22.30;91.20
9237;DHT22;24579;42.810;23.214;2022-07-22T06:01:19;22.60;91.00
9237;DHT22;24579;42.810;23.214;2022-07-22T06:04:09;22.70;91.40
9237;DHT22;24579;42.810;23.214;2022-07-22T06:06:47;22.80;89.40
9237;DHT22;24579;42.810;23.214;2022-07-22T06:09:25;22.90;87.90
9237;DHT22;24579;42.810;23.214;2022-07-22T06:11:58;23.10;90.20
9237;DHT22;24579;42.810;23.214;2022-07-22T06:14:34;23.30;90.30
9237;DHT22;24579;42.810;23.214;2022-07-22T06:17:22;23.40;89.00
9237;DHT22;24579;42.810;23.214;2022-07-22T06:19:49;23.70;88.20
9237;DHT22;24579;42.810;23.214;2022-07-22T06:22:29;23.60;86.10
9237;DHT22;24579;42.810;23.214;2022-07-22T06:25:01;23.60;85.50
9237;DHT22;24579;42.810;23.214;2022-07-22T06:27:46;23.80;85.10
9237;DHT22;24579;42.810;23.214;2022-07-22T06:30:33;24.10;85.30
9237;DHT22;24579;42.810;23.214;2022-07-22T06:33:18;24.20;80.30
9237;DHT22;24579;42.810;23.214;2022-07-22T06:36:01;24.30;81.20
9237;DHT22;24579;42.810;23.214;2022-07-22T06:38:41;24.70;80.80
9237;DHT22;24579;42.810;23.214;2022-07-22T06:41:20;25.00;80.50
9237;DHT22;24579;42.810;23.214;2022-07-22T06:44:04;25.10;78.30
9237;DHT22;24579;42.810;23.214;2022-07-22T06:47:06;25.20;77.00
9237;DHT22;24579;42.810;23.214;2022-07-22T06:49:43;25.10;76.70
9237;DHT22;24579;42.810;23.214;2022-07-22T06:52:23;25.30;77.80
9237;DHT22;24579;42.810;23.214;2022-07-22T06:55:18;25.40;76.60
9237;DHT22;24579;42.810;23.214;2022-07-22T06:58:11;25.40;73.90
9237;DHT22;24579;42.810;23.214;2022-07-22T07:00:46;25.60;75.70
9237;DHT22;24579;42.810;23.214;2022-07-22T07:03:16;25.80;74.20
9237;DHT22;24579;42.810;23.214;2022-07-22T07:06:15;25.90;73.60
9237;DHT22;24579;42.810;23.214;2022-07-22T07:08:45;26.10;72.50
9237;DHT22;24579;42.810;23.214;2022-07-22T07:11:27;26.30;71.70
9237;DHT22;24579;42.810;23.214;2022-07-22T07:13:58;26.60;73.30
9237;DHT22;24579;42.810;23.214;2022-07-22T07:16:40;26.70;69.00
9237;DHT22;24579;42.810;23.214;2022-07-22T07:19:13;26.70;68.40
9237;DHT22;24579;42.810;23.214;2022-07-22T07:21:44;26.80;68.90
9237;DHT22;24579;42.810;23.214;2022-07-22T07:24:22;26.90;67.60
9237;DHT22;24579;42.810;23.214;2022-07-22T07:27:18;26.90;69.40
9237;DHT22;24579;42.810;23.214;2022-07-22T07:29:58;27.20;67.80
9237;DHT22;24579;42.810;23.214;2022-07-22T07:32:29;27.40;65.30
9237;DHT22;24579;42.810;23.214;2022-07-22T07:35:16;27.40;64.40
9237;DHT22;24579;42.810;23.214;2022-07-22T07:37:54;27.60;63.90
9237;DHT22;24579;42.810;23.214;2022-07-22T07:40:42;27.60;63.10
9237;DHT22;24579;42.810;23.214;2022-07-22T07:43:36;28.00;64.00
9237;DHT22;24579;42.810;23.214;2022-07-22T07:46:22;28.10;62.60
9237;DHT22;24579;42.810;23.214;2022-07-22T07:51:49;28.40;61.20
9237;DHT22;24579;42.810;23.214;2022-07-22T07:54:22;28.50;59.50
9237;DHT22;24579;42.810;23.214;2022-07-22T07:57:03;28.70;61.40
9237;DHT22;24579;42.810;23.214;2022-07-22T07:59:33;28.90;58.80
9237;DHT22;24579;42.810;23.214;2022-07-22T08:02:12;29.00;58.50
9237;DHT22;24579;42.810;23.214;2022-07-22T08:04:49;28.90;57.30
9237;DHT22;24579;42.810;23.214;2022-07-22T08:07:22;29.30;58.10
9237;DHT22;24579;42.810;23.214;2022-07-22T08:10:12;29.30;56.90
9237;DHT22;24579;42.810;23.214;2022-07-22T08:13:16;29.60;58.80
9237;DHT22;24579;42.810;23.214;2022-07-22T08:16:08;29.80;58.30
9237;DHT22;24579;42.810;23.214;2022-07-22T08:18:55;30.00;58.00
9237;DHT22;24579;42.810;23.214;2022-07-22T08:21:31;30.10;56.00
9237;DHT22;24579;42.810;23.214;2022-07-22T08:24:04;30.50;56.90
9237;DHT22;24579;42.810;23.214;2022-07-22T08:26:41;30.40;54.40
9237;DHT22;24579;42.810;23.214;2022-07-22T08:29:15;30.60;55.80
9237;DHT22;24579;42.810;23.214;2022-07-22T08:31:57;30.80;53.80
9237;DHT22;24579;42.810;23.214;2022-07-22T08:34:40;30.80;52.30
9237;DHT22;24579;42.810;23.214;2022-07-22T08:37:08;31.10;53.30
9237;DHT22;24579;42.810;23.214;2022-07-22T08:39:57;31.00;52.00
9237;DHT22;24579;42.810;23.214;2022-07-22T08:42:37;31.20;52.50
9237;DHT22;24579;42.810;23.214;2022-07-22T08:45:16;31.60;51.50
9237;DHT22;24579;42.810;23.214;2022-07-22T08:47:53;31.80;50.50
9237;DHT22;24579;42.810;23.214;2022-07-22T08:53:22;31.80;51.20
9237;DHT22;24579;42.810;23.214;2022-07-22T08:55:53;31.90;50.90
9237;DHT22;24579;42.810;23.214;2022-07-22T08:58:23;31.90;47.80
9237;DHT22;24579;42.810;23.214;2022-07-22T09:01:04;32.30;47.80
9237;DHT22;24579;42.810;23.214;2022-07-22T09:06:49;33.10;51.30
9237;DHT22;24579;42.810;23.214;2022-07-22T09:09:34;32.90;47.30
9237;DHT22;24579;42.810;23.214;2022-07-22T09:12:10;32.90;48.10
9237;DHT22;24579;42.810;23.214;2022-07-22T09:14:52;32.80;46.50
9237;DHT22;24579;42.810;23.214;2022-07-22T09:17:35;32.90;46.80
9237;DHT22;24579;42.810;23.214;2022-07-22T09:20:16;32.70;47.00
9237;DHT22;24579;42.810;23.214;2022-07-22T09:22:50;32.50;50.50
9237;DHT22;24579;42.810;23.214;2022-07-22T09:25:39;32.30;46.60
9237;DHT22;24579;42.810;23.214;2022-07-22T09:31:35;33.20;46.70
9237;DHT22;24579;42.810;23.214;2022-07-22T09:34:37;33.60;44.90
9237;DHT22;24579;42.810;23.214;2022-07-22T09:37:10;34.10;44.00
9237;DHT22;24579;42.810;23.214;2022-07-22T09:39:44;34.10;48.60
9237;DHT22;24579;42.810;23.214;2022-07-22T09:42:13;34.70;48.10
9237;DHT22;24579;42.810;23.214;2022-07-22T09:44:51;35.30;46.50
9237;DHT22;24579;42.810;23.214;2022-07-22T09:47:34;35.60;44.80
9237;DHT22;24579;42.810;23.214;2022-07-22T09:50:10;35.70;43.30
9237;DHT22;24579;42.810;23.214;2022-07-22T09:52:50;35.80;42.40
9237;DHT22;24579;42.810;23.214;2022-07-22T09:55:43;35.90;41.30
9237;DHT22;24579;42.810;23.214;2022-07-22T09:58:15;35.70;43.30
9237;DHT22;24579;42.810;23.214;2022-07-22T10:00:57;36.10;44.10
9237;DHT22;24579;42.810;23.214;2022-07-22T10:03:50;35.90;43.40
9237;DHT22;24579;42.810;23.214;2022-07-22T10:06:21;35.80;42.40
9237;DHT22;24579;42.810;23.214;2022-07-22T10:08:56;35.90;40.60
9237;DHT22;24579;42.810;23.214;2022-07-22T10:11:28;36.10;40.00
9237;DHT22;24579;42.810;23.214;2022-07-22T10:14:10;36.40;40.00
9237;DHT22;24579;42.810;23.214;2022-07-22T10:16:52;36.20;40.30
9237;DHT22;24579;42.810;23.214;2022-07-22T10:19:35;36.20;39.70
9237;DHT22;24579;42.810;23.214;2022-07-22T10:22:07;36.60;39.60
9237;DHT22;24579;42.810;23.214;2022-07-22T10:25:03;36.70;37.90
9237;DHT22;24579;42.810;23.214;2022-07-22T10:27:52;36.90;37.30
9237;DHT22;24579;42.810;23.214;2022-07-22T10:30:36;37.20;35.50
9237;DHT22;24579;42.810;23.214;2022-07-22T10:33:33;37.10;37.50
9237;DHT22;24579;42.810;23.214;2022-07-22T10:36:32;36.80;36.00
9237;DHT22;24579;42.810;23.214;2022-07-22T10:39:15;36.60;36.90
9237;DHT22;24579;42.810;23.214;2022-07-22T10:41:46;37.00;36.20
9237;DHT22;24579;42.810;23.214;2022-07-22T10:47:53;36.20;36.80
9237;DHT22;24579;42.810;23.214;2022-07-22T10:50:45;36.90;35.00
9237;DHT22;24579;42.810;23.214;2022-07-22T10:53:26;37.40;35.00
9237;DHT22;24579;42.810;23.214;2022-07-22T10:56:22;37.40;33.60
9237;DHT22;24579;42.810;23.214;2022-07-22T10:59:08;37.80;34.60
9237;DHT22;24579;42.810;23.214;2022-07-22T11:01:39;37.90;33.10
9237;DHT22;24579;42.810;23.214;2022-07-22T11:05:28;37.40;34.00
9237;DHT22;24579;42.810;23.214;2022-07-22T11:07:39;37.60;33.30
9237;DHT22;24579;42.810;23.214;2022-07-22T11:10:18;38.40;32.10
9237;DHT22;24579;42.810;23.214;2022-07-22T11:12:51;38.60;31.50
9237;DHT22;24579;42.810;23.214;2022-07-22T11:15:38;38.50;32.20
9237;DHT22;24579;42.810;23.214;2022-07-22T11:18:13;38.00;33.40
9237;DHT22;24579;42.810;23.214;2022-07-22T11:21:09;37.30;33.00
9237;DHT22;24579;42.810;23.214;2022-07-22T11:23:59;37.80;33.50
9237;DHT22;24579;42.810;23.214;2022-07-22T11:26:42;38.10;31.70
9237;DHT22;24579;42.810;23.214;2022-07-22T11:29:31;38.60;32.40
9237;DHT22;24579;42.810;23.214;2022-07-22T11:32:02;38.30;31.80
9237;DHT22;24579;42.810;23.214;2022-07-22T11:34:44;37.50;31.70
9237;DHT22;24579;42.810;23.214;2022-07-22T11:37:17;37.90;33.80
9237;DHT22;24579;42.810;23.214;2022-07-22T11:48:44;38.50;32.00
9237;DHT22;24579;42.810;23.214;2022-07-22T11:51:20;38.10;32.10
9237;DHT22;24579;42.810;23.214;2022-07-22T11:53:57;38.70;32.30
9237;DHT22;24579;42.810;23.214;2022-07-22T11:57:00;38.60;31.40
9237;DHT22;24579;42.810;23.214;2022-07-22T11:59:54;38.80;32.10
9237;DHT22;24579;42.810;23.214;2022-07-22T12:02:38;39.40;30.30
9237;DHT22;24579;42.810;23.214;2022-07-22T12:05:13;39.70;31.80
9237;DHT22;24579;42.810;23.214;2022-07-22T12:07:48;39.30;31.10
9237;DHT22;24579;42.810;23.214;2022-07-22T12:13:10;38.60;32.10
9237;DHT22;24579;42.810;23.214;2022-07-22T12:16:07;39.00;31.80
9237;DHT22;24579;42.810;23.214;2022-07-22T12:19:02;39.00;31.30
9237;DHT22;24579;42.810;23.214;2022-07-22T12:22:01;38.30;31.90
9237;DHT22;24579;42.810;23.214;2022-07-22T12:24:36;38.60;33.70
9237;DHT22;24579;42.810;23.214;2022-07-22T12:27:18;39.30;31.30
9237;DHT22;24579;42.810;23.214;2022-07-22T12:30:00;39.40;30.40
9237;DHT22;24579;42.810;23.214;2022-07-22T12:32:52;39.50;30.70
9237;DHT22;24579;42.810;23.214;2022-07-22T12:37:30;39.70;29.20
9237;DHT22;24579;42.810;23.214;2022-07-22T12:38:20;39.80;29.10
9237;DHT22;24579;42.810;23.214;2022-07-22T12:40:52;39.90;29.10
9237;DHT22;24579;42.810;23.214;2022-07-22T12:43:26;39.90;30.60
9237;DHT22;24579;42.810;23.214;2022-07-22T12:46:29;40.10;29.70
9237;DHT22;24579;42.810;23.214;2022-07-22T12:49:06;40.20;28.50
9237;DHT22;24579;42.810;23.214;2022-07-22T12:51:41;40.30;28.50
9237;DHT22;24579;42.810;23.214;2022-07-22T12:54:30;40.40;28.80
9237;DHT22;24579;42.810;23.214;2022-07-22T12:57:10;40.30;29.50
9237;DHT22;24579;42.810;23.214;2022-07-22T12:59:58;40.40;29.20
9237;DHT22;24579;42.810;23.214;2022-07-22T13:02:53;40.20;29.70
9237;DHT22;24579;42.810;23.214;2022-07-22T13:05:34;40.50;29.20
9237;DHT22;24579;42.810;23.214;2022-07-22T13:08:19;40.20;30.50
9237;DHT22;24579;42.810;23.214;2022-07-22T13:11:01;40.30;28.70
9237;DHT22;24579;42.810;23.214;2022-07-22T13:13:50;40.50;29.40
9237;DHT22;24579;42.810;23.214;2022-07-22T13:16:16;40.60;28.00
9237;DHT22;24579;42.810;23.214;2022-07-22T13:19:05;40.20;28.20
9237;DHT22;24579;42.810;23.214;2022-07-22T13:21:37;40.60;27.40
9237;DHT22;24579;42.810;23.214;2022-07-22T13:24:10;40.50;28.00
9237;DHT22;24579;42.810;23.214;2022-07-22T13:26:45;40.70;28.00
9237;DHT22;24579;42.810;23.214;2022-07-22T13:29:19;40.40;29.60
9237;DHT22;24579;42.810;23.214;2022-07-22T13:31:52;39.10;30.00
9237;DHT22;24579;42.810;23.214;2022-07-22T13:34:23;39.20;30.00
9237;DHT22;24579;42.810;23.214;2022-07-22T13:37:01;39.60;29.70
9237;DHT22;24579;42.810;23.214;2022-07-22T13:39:37;39.50;29.80
9237;DHT22;24579;42.810;23.214;2022-07-22T13:42:11;39.20;30.10
9237;DHT22;24579;42.810;23.214;2022-07-22T13:47:25;39.50;29.70
9237;DHT22;24579;42.810;23.214;2022-07-22T13:50:11;39.80;28.90
9237;DHT22;24579;42.810;23.214;2022-07-22T13:52:57;40.20;29.70
9237;DHT22;24579;42.810;23.214;2022-07-22T13:55:31;40.10;29.70
9237;DHT22;24579;42.810;23.214;2022-07-22T13:58:02;39.30;30.10
9237;DHT22;24579;42.810;23.214;2022-07-22T14:00:53;38.70;30.50
9237;DHT22;24579;42.810;23.214;2022-07-22T14:03:20;38.00;31.50
9237;DHT22;24579;42.810;23.214;2022-07-22T14:06:01;38.40;31.40
9237;DHT22;24579;42.810;23.214;2022-07-22T14:08:35;38.70;30.10
9237;DHT22;24579;42.810;23.214;2022-07-22T14:11:22;39.00;29.80
9237;DHT22;24579;42.810;23.214;2022-07-22T14:13:52;39.10;30.30
9237;DHT22;24579;42.810;23.214;2022-07-22T14:16:39;38.70;30.00
9237;DHT22;24579;42.810;23.214;2022-07-22T14:22:05;38.80;30.00
9237;DHT22;24579;42.810;23.214;2022-07-22T14:24:39;38.60;30.10
9237;DHT22;24579;42.810;23.214;2022-07-22T14:27:22;37.80;30.90
9237;DHT22;24579;42.810;23.214;2022-07-22T14:30:08;38.20;30.60
9237;DHT22;24579;42.810;23.214;2022-07-22T14:32:40;38.50;30.20
9237;DHT22;24579;42.810;23.214;2022-07-22T14:35:11;38.60;29.10
9237;DHT22;24579;42.810;23.214;2022-07-22T14:37:42;38.50;30.30
9237;DHT22;24579;42.810;23.214;2022-07-22T14:40:14;38.30;29.80
9237;DHT22;24579;42.810;23.214;2022-07-22T14:42:51;38.20;30.00
9237;DHT22;24579;42.810;23.214;2022-07-22T14:45:22;37.90;31.50
9237;DHT22;24579;42.810;23.214;2022-07-22T14:47:55;38.30;30.80
9237;DHT22;24579;42.810;23.214;2022-07-22T14:50:31;38.50;30.00
9237;DHT22;24579;42.810;23.214;2022-07-22T14:52:59;38.50;29.70
9237;DHT22;24579;42.810;23.214;2022-07-22T14:55:59;38.10;30.00
9237;DHT22;24579;42.810;23.214;2022-07-22T14:58:28;37.90;30.50
9237;DHT22;24579;42.810;23.214;2022-07-22T15:01:08;38.00;30.60
9237;DHT22;24579;42.810;23.214;2022-07-22T15:03:48;37.60;30.40
9237;DHT22;24579;42.810;23.214;2022-07-22T15:06:20;37.60;30.50
9237;DHT22;24579;42.810;23.214;2022-07-22T15:08:56;37.70;30.30
9237;DHT22;24579;42.810;23.214;2022-07-22T15:11:41;38.20;30.00
9237;DHT22;24579;42.810;23.214;2022-07-22T15:14:21;37.90;30.40
9237;DHT22;24579;42.810;23.214;2022-07-22T15:17:08;37.70;30.90
9237;DHT22;24579;42.810;23.214;2022-07-22T15:20:08;37.60;31.20
9237;DHT22;24579;42.810;23.214;2022-07-22T15:22:43;37.80;30.40
9237;DHT22;24579;42.810;23.214;2022-07-22T15:25:17;37.40;30.60
9237;DHT22;24579;42.810;23.214;2022-07-22T15:28:01;37.20;31.10
9237;DHT22;24579;42.810;23.214;2022-07-22T15:30:37;36.70;30.40
9237;DHT22;24579;42.810;23.214;2022-07-22T15:33:20;36.70;31.80
9237;DHT22;24579;42.810;23.214;2022-07-22T15:36:18;36.30;31.80
9237;DHT22;24579;42.810;23.214;2022-07-22T15:38:56;36.30;32.50
9237;DHT22;24579;42.810;23.214;2022-07-22T15:41:37;36.20;32.30
9237;DHT22;24579;42.810;23.214;2022-07-22T15:44:31;36.30;31.60
9237;DHT22;24579;42.810;23.214;2022-07-22T15:47:09;36.00;32.40
9237;DHT22;24579;42.810;23.214;2022-07-22T15:49:50;35.70;32.30
9237;DHT22;24579;42.810;23.214;2022-07-22T15:52:35;35.40;32.60
9237;DHT22;24579;42.810;23.214;2022-07-22T15:55:26;35.10;32.80
9237;DHT22;24579;42.810;23.214;2022-07-22T15:58:05;35.00;33.90
9237;DHT22;24579;42.810;23.214;2022-07-22T16:00:56;34.90;33.40
9237;DHT22;24579;42.810;23.214;2022-07-22T16:03:37;34.90;33.60
9237;DHT22;24579;42.810;23.214;2022-07-22T16:06:09;35.00;33.90
9237;DHT22;24579;42.810;23.214;2022-07-22T16:08:41;34.80;34.30
9237;DHT22;24579;42.810;23.214;2022-07-22T16:11:20;34.60;34.60
9237;DHT22;24579;42.810;23.214;2022-07-22T16:13:57;34.30;34.40
9237;DHT22;24579;42.810;23.214;2022-07-22T16:16:39;34.30;34.30
9237;DHT22;24579;42.810;23.214;2022-07-22T16:19:10;34.20;35.00
9237;DHT22;24579;42.810;23.214;2022-07-22T16:21:38;34.30;34.90
9237;DHT22;24579;42.810;23.214;2022-07-22T16:24:12;34.30;35.30
9237;DHT22;24579;42.810;23.214;2022-07-22T16:26:40;33.90;35.60
9237;DHT22;24579;42.810;23.214;2022-07-22T16:29:17;33.70;36.70
9237;DHT22;24579;42.810;23.214;2022-07-22T16:32:09;33.70;37.30
9237;DHT22;24579;42.810;23.214;2022-07-22T16:34:43;33.60;39.00
9237;DHT22;24579;42.810;23.214;2022-07-22T16:37:23;33.20;40.80
9237;DHT22;24579;42.810;23.214;2022-07-22T16:39:58;33.20;42.10
9237;DHT22;24579;42.810;23.214;2022-07-22T16:42:30;33.00;41.30
9237;DHT22;24579;42.810;23.214;2022-07-22T16:45:01;32.60;42.00
9237;DHT22;24579;42.810;23.214;2022-07-22T16:47:44;32.60;43.10
9237;DHT22;24579;42.810;23.214;2022-07-22T16:50:36;32.60;45.30
9237;DHT22;24579;42.810;23.214;2022-07-22T16:53:08;32.50;45.80
9237;DHT22;24579;42.810;23.214;2022-07-22T16:55:47;32.30;45.80
9237;DHT22;24579;42.810;23.214;2022-07-22T16:58:19;32.20;45.10
9237;DHT22;24579;42.810;23.214;2022-07-22T17:00:53;32.10;45.90
9237;DHT22;24579;42.810;23.214;2022-07-22T17:03:27;31.80;45.80
9237;DHT22;24579;42.810;23.214;2022-07-22T17:06:12;31.90;46.20
9237;DHT22;24579;42.810;23.214;2022-07-22T17:08:48;31.70;46.30
9237;DHT22;24579;42.810;23.214;2022-07-22T17:11:49;31.60;47.30
9237;DHT22;24579;42.810;23.214;2022-07-22T17:14:43;31.80;46.50
9237;DHT22;24579;42.810;23.214;2022-07-22T17:17:19;31.70;46.30
9237;DHT22;24579;42.810;23.214;2022-07-22T17:22:54;31.60;46.60
9237;DHT22;24579;42.810;23.214;2022-07-22T17:25:59;31.40;46.40
9237;DHT22;24579;42.810;23.214;2022-07-22T17:28:34;31.30;46.70
9237;DHT22;24579;42.810;23.214;2022-07-22T17:31:23;31.30;48.20
9237;DHT22;24579;42.810;23.214;2022-07-22T17:34:24;31.20;47.60
9237;DHT22;24579;42.810;23.214;2022-07-22T17:37:11;31.00;47.00